sensor_id;sensor_type;location;lat;lon;timestamp;temperature;humidity
39189;DHT22;24915;50.858;4.376;2022-11-27T00:00:58;7.90;99.90
39189;DHT22;24915;50.858;4.376;2022-11-27T00:03:24;7.90;99.90
39189;DHT22;24915;50.858;4.376;2022-11-27T00:05:57;7.90;99.90
39189;DHT22;24915;50.858;4.376;2022-11-27T00:08:24;7.90;99.90
39189;DHT22;24915;50.858;4.376;2022-11-27T00:10:50;7.90;99.90
39189;DHT22;24915;50.858;4.376;2022-11-27T00:13:15;7.90;99.90
39189;DHT22;24915;50.858;4.376;2022-11-27T00:15:41;7.90;99.90
39189;DHT22;24915;50.858;4.376;2022-11-27T00:18:07;7.90;99.90
39189;DHT22;24915;50.858;4.376;2022-11-27T00:20:33;7.90;99.90
39189;DHT22;24915;50.858;4.376;2022-11-27T00:22:58;7.90;99.90
39189;DHT22;24915;50.858;4.376;2022-11-27T00:25:24;7.90;99.90
39189;DHT22;24915;50.858;4.376;2022-11-27T00:27:50;7.90;99.90
39189;DHT22;24915;50.858;4.376;2022-11-27T00:30:15;7.90;99.90
39189;DHT22;24915;50.858;4.376;2022-11-27T00:32:41;7.90;99.90
39189;DHT22;24915;50.858;4.376;2022-11-27T00:35:07;7.90;99.90
39189;DHT22;24915;50.858;4.376;2022-11-27T00:37:32;8.00;99.90
39189;DHT22;24915;50.858;4.376;2022-11-27T00:39:58;8.00;99.90
39189;DHT22;24915;50.858;4.376;2022-11-27T00:42:24;8.00;99.90
39189;DHT22;24915;50.858;4.376;2022-11-27T00:44:49;8.00;99.90
39189;DHT22;24915;50.858;4.376;2022-11-27T00:47:15;8.00;99.90
39189;DHT22;24915;50.858;4.376;2022-11-27T00:49:41;8.00;99.90
39189;DHT22;24915;50.858;4.376;2022-11-27T00:52:06;8.00;99.90
39189;DHT22;24915;50.858;4.376;2022-11-27T00:54:32;8.00;99.90
39189;DHT22;24915;50.858;4.376;2022-11-27T00:56:58;8.00;99.90
39189;DHT22;24915;50.858;4.376;2022-11-27T00:59:24;8.00;99.90
39189;DHT22;24915;50.858;4.376;2022-11-27T01:01:49;8.00;99.90
39189;DHT22;24915;50.858;4.376;2022-11-27T01:04:15;8.00;99.90
39189;DHT22;24915;50.858;4.376;2022-11-27T01:06:42;8.00;99.90
39189;DHT22;24915;50.858;4.376;2022-11-27T01:09:10;8.00;99.90
39189;DHT22;24915;50.858;4.376;2022-11-27T01:11:36;8.00;99.90
39189;DHT22;24915;50.858;4.376;2022-11-27T01:14:05;8.00;99.90
39189;DHT22;24915;50.858;4.376;2022-11-27T01:16:31;8.00;99.90
39189;DHT22;24915;50.858;4.376;2022-11-27T01:18:59;8.00;99.90
39189;DHT22;24915;50.858;4.376;2022-11-27T01:21:27;8.00;99.90
39189;DHT22;24915;50.858;4.376;2022-11-27T01:23:53;8.00;99.90
39189;DHT22;24915;50.858;4.376;2022-11-27T01:26:20;8.00;99.90
39189;DHT22;24915;50.858;4.376;2022-11-27T01:28:46;8.00;99.90
39189;DHT22;24915;50.858;4.376;2022-11-27T01:31:14;8.00;99.90
39189;DHT22;24915;50.858;4.376;2022-11-27T01:33:41;8.00;99.90
39189;DHT22;24915;50.858;4.376;2022-11-27T01:36:07;8.00;99.90
39189;DHT22;24915;50.858;4.376;2022-11-27T01:38:33;8.00;99.90
39189;DHT22;24915;50.858;4.376;2022-11-27T01:41:07;8.00;99.90
39189;DHT22;24915;50.858;4.376;2022-11-27T01:49:28;7.90;99.90
39189;DHT22;24915;50.858;4.376;2022-11-27T01:54:36;7.90;99.90
39189;DHT22;24915;50.858;4.376;2022-11-27T01:57:08;8.00;99.90
39189;DHT22;24915;50.858;4.376;2022-11-27T01:59:36;8.00;99.90
39189;DHT22;24915;50.858;4.376;2022-11-27T02:02:02;7.90;99.90
39189;DHT22;24915;50.858;4.376;2022-11-27T02:04:28;7.90;99.90
39189;DHT22;24915;50.858;4.376;2022-11-27T02:06:56;7.90;99.90
39189;DHT22;24915;50.858;4.376;2022-11-27T02:09:22;7.90;99.90
39189;DHT22;24915;50.858;4.376;2022-11-27T02:11:59;7.90;99.90
39189;DHT22;24915;50.858;4.376;2022-11-27T02:17:25;7.90;99.90
39189;DHT22;24915;50.858;4.376;2022-11-27T02:20:12;7.90;99.90
39189;DHT22;24915;50.858;4.376;2022-11-27T02:31:39;7.90;99.90
39189;DHT22;24915;50.858;4.376;2022-11-27T02:34:23;7.90;99.90
39189;DHT22;24915;50.858;4.376;2022-11-27T02:37:07;8.00;99.90
39189;DHT22;24915;50.858;4.376;2022-11-27T02:42:31;8.00;99.90
39189;DHT22;24915;50.858;4.376;2022-11-27T02:45:02;8.00;99.90
39189;DHT22;24915;50.858;4.376;2022-11-27T02:47:29;8.00;99.90
39189;DHT22;24915;50.858;4.376;2022-11-27T02:49:55;8.00;99.90
39189;DHT22;24915;50.858;4.376;2022-11-27T02:52:24;8.00;99.90
39189;DHT22;24915;50.858;4.376;2022-11-27T02:54:53;8.00;99.90
39189;DHT22;24915;50.858;4.376;2022-11-27T02:57:23;8.00;99.90
39189;DHT22;24915;50.858;4.376;2022-11-27T02:59:49;8.00;99.90
39189;DHT22;24915;50.858;4.376;2022-11-27T03:02:20;8.00;99.90
39189;DHT22;24915;50.858;4.376;2022-11-27T03:04:50;8.00;99.90
39189;DHT22;24915;50.858;4.376;2022-11-27T03:07:32;8.00;99.90
39189;DHT22;24915;50.858;4.376;2022-11-27T03:10:02;7.90;99.90
39189;DHT22;24915;50.858;4.376;2022-11-27T03:12:29;7.90;99.90
39189;DHT22;24915;50.858;4.376;2022-11-27T03:14:54;7.90;99.90
39189;DHT22;24915;50.858;4.376;2022-11-27T03:17:34;8.00;99.90
39189;DHT22;24915;50.858;4.376;2022-11-27T03:20:10;8.00;99.90
39189;DHT22;24915;50.858;4.376;2022-11-27T03:22:39;8.00;99.90
39189;DHT22;24915;50.858;4.376;2022-11-27T03:25:05;8.00;99.90
39189;DHT22;24915;50.858;4.376;2022-11-27T03:27:34;8.00;99.90
39189;DHT22;24915;50.858;4.376;2022-11-27T03:30:06;7.90;99.90
39189;DHT22;24915;50.858;4.376;2022-11-27T03:32:32;8.00;99.90
39189;DHT22;24915;50.858;4.376;2022-11-27T03:34:58;7.90;99.90
39189;DHT22;24915;50.858;4.376;2022-11-27T03:37:25;7.90;99.90
39189;DHT22;24915;50.858;4.376;2022-11-27T03:39:52;7.90;99.90
39189;DHT22;24915;50.858;4.376;2022-11-27T03:42:33;7.90;99.90
39189;DHT22;24915;50.858;4.376;2022-11-27T03:50:59;7.90;99.90
39189;DHT22;24915;50.858;4.376;2022-11-27T03:55:46;7.90;99.90
39189;DHT22;24915;50.858;4.376;2022-11-27T03:58:29;7.90;99.90
39189;DHT22;24915;50.858;4.376;2022-11-27T04:00:58;8.00;99.90
39189;DHT22;24915;50.858;4.376;2022-11-27T04:03:28;8.00;99.90
39189;DHT22;24915;50.858;4.376;2022-11-27T04:05:54;8.00;99.90
39189;DHT22;24915;50.858;4.376;2022-11-27T04:08:20;8.00;99.90
39189;DHT22;24915;50.858;4.376;2022-11-27T04:10:47;8.00;99.90
39189;DHT22;24915;50.858;4.376;2022-11-27T04:13:13;8.00;99.90
39189;DHT22;24915;50.858;4.376;2022-11-27T04:15:39;8.00;99.90
39189;DHT22;24915;50.858;4.376;2022-11-27T04:18:05;8.00;99.90
39189;DHT22;24915;50.858;4.376;2022-11-27T04:20:30;8.00;99.90
39189;DHT22;24915;50.858;4.376;2022-11-27T04:22:56;8.00;99.90
39189;DHT22;24915;50.858;4.376;2022-11-27T04:25:22;8.00;99.90
39189;DHT22;24915;50.858;4.376;2022-11-27T04:27:49;8.00;99.90
39189;DHT22;24915;50.858;4.376;2022-11-27T04:30:15;8.00;99.90
39189;DHT22;24915;50.858;4.376;2022-11-27T04:32:40;8.00;99.90
39189;DHT22;24915;50.858;4.376;2022-11-27T04:35:07;8.00;99.90
39189;DHT22;24915;50.858;4.376;2022-11-27T04:37:32;7.90;99.90
39189;DHT22;24915;50.858;4.376;2022-11-27T04:39:58;7.90;99.90
39189;DHT22;24915;50.858;4.376;2022-11-27T04:42:23;7.90;99.90
39189;DHT22;24915;50.858;4.376;2022-11-27T04:44:49;7.90;99.90
39189;DHT22;24915;50.858;4.376;2022-11-27T04:47:15;7.90;99.90
39189;DHT22;24915;50.858;4.376;2022-11-27T04:49:41;7.90;99.90
39189;DHT22;24915;50.858;4.376;2022-11-27T04:52:07;7.90;99.90
39189;DHT22;24915;50.858;4.376;2022-11-27T04:54:32;7.90;99.90
39189;DHT22;24915;50.858;4.376;2022-11-27T04:56:58;7.90;99.90
39189;DHT22;24915;50.858;4.376;2022-11-27T04:59:24;7.80;99.90
39189;DHT22;24915;50.858;4.376;2022-11-27T05:01:49;7.80;99.90
39189;DHT22;24915;50.858;4.376;2022-11-27T05:04:15;7.80;99.90
39189;DHT22;24915;50.858;4.376;2022-11-27T05:06:41;7.80;99.90
39189;DHT22;24915;50.858;4.376;2022-11-27T05:09:06;7.80;99.90
39189;DHT22;24915;50.858;4.376;2022-11-27T05:11:32;7.80;99.90
39189;DHT22;24915;50.858;4.376;2022-11-27T05:13:58;7.80;99.90
39189;DHT22;24915;50.858;4.376;2022-11-27T05:16:47;7.80;99.90
39189;DHT22;24915;50.858;4.376;2022-11-27T05:19:15;7.80;99.90
39189;DHT22;24915;50.858;4.376;2022-11-27T05:21:41;7.80;99.90
39189;DHT22;24915;50.858;4.376;2022-11-27T05:24:08;7.70;99.90
39189;DHT22;24915;50.858;4.376;2022-11-27T05:26:34;7.70;99.90
39189;DHT22;24915;50.858;4.376;2022-11-27T05:28:59;7.70;99.90
39189;DHT22;24915;50.858;4.376;2022-11-27T05:31:26;7.70;99.90
39189;DHT22;24915;50.858;4.376;2022-11-27T05:33:51;7.70;99.90
39189;DHT22;24915;50.858;4.376;2022-11-27T05:36:17;7.70;99.90
39189;DHT22;24915;50.858;4.376;2022-11-27T05:38:43;7.70;99.90
39189;DHT22;24915;50.858;4.376;2022-11-27T05:41:08;7.70;99.90
39189;DHT22;24915;50.858;4.376;2022-11-27T05:43:34;7.70;99.90
39189;DHT22;24915;50.858;4.376;2022-11-27T05:46:07;7.70;99.90
39189;DHT22;24915;50.858;4.376;2022-11-27T05:48:34;7.70;99.90
39189;DHT22;24915;50.858;4.376;2022-11-27T05:51:00;7.70;99.90
39189;DHT22;24915;50.858;4.376;2022-11-27T05:53:26;7.70;99.90
39189;DHT22;24915;50.858;4.376;2022-11-27T05:55:51;7.70;99.90
39189;DHT22;24915;50.858;4.376;2022-11-27T05:58:17;7.70;99.90
39189;DHT22;24915;50.858;4.376;2022-11-27T06:00:43;7.70;99.90
39189;DHT22;24915;50.858;4.376;2022-11-27T06:03:09;7.70;99.90
39189;DHT22;24915;50.858;4.376;2022-11-27T06:05:39;7.70;99.90
39189;DHT22;24915;50.858;4.376;2022-11-27T06:08:04;7.70;99.90
39189;DHT22;24915;50.858;4.376;2022-11-27T06:10:30;7.70;99.90
39189;DHT22;24915;50.858;4.376;2022-11-27T06:12:56;7.70;99.90
39189;DHT22;24915;50.858;4.376;2022-11-27T06:15:21;7.70;99.90
39189;DHT22;24915;50.858;4.376;2022-11-27T06:17:50;7.70;99.90
39189;DHT22;24915;50.858;4.376;2022-11-27T06:20:16;7.60;99.90
39189;DHT22;24915;50.858;4.376;2022-11-27T06:22:42;7.60;99.90
39189;DHT22;24915;50.858;4.376;2022-11-27T06:25:08;7.70;99.90
39189;DHT22;24915;50.858;4.376;2022-11-27T06:27:34;7.70;99.90
39189;DHT22;24915;50.858;4.376;2022-11-27T06:30:00;7.70;99.90
39189;DHT22;24915;50.858;4.376;2022-11-27T06:32:26;7.70;99.90
39189;DHT22;24915;50.858;4.376;2022-11-27T06:34:52;7.70;99.90
39189;DHT22;24915;50.858;4.376;2022-11-27T06:37:18;7.70;99.90
39189;DHT22;24915;50.858;4.376;2022-11-27T06:39:43;7.70;99.90
39189;DHT22;24915;50.858;4.376;2022-11-27T06:42:09;7.70;99.90
39189;DHT22;24915;50.858;4.376;2022-11-27T06:44:35;7.80;99.90
39189;DHT22;24915;50.858;4.376;2022-11-27T06:47:00;7.80;99.90
39189;DHT22;24915;50.858;4.376;2022-11-27T06:49:26;7.80;99.90
39189;DHT22;24915;50.858;4.376;2022-11-27T06:51:52;7.80;99.90
39189;DHT22;24915;50.858;4.376;2022-11-27T06:54:17;7.80;99.90
39189;DHT22;24915;50.858;4.376;2022-11-27T06:56:43;7.80;99.90
39189;DHT22;24915;50.858;4.376;2022-11-27T06:59:12;7.80;99.90
39189;DHT22;24915;50.858;4.376;2022-11-27T07:01:39;7.80;99.90
39189;DHT22;24915;50.858;4.376;2022-11-27T07:04:05;7.80;99.90
39189;DHT22;24915;50.858;4.376;2022-11-27T07:06:30;7.80;99.90
39189;DHT22;24915;50.858;4.376;2022-11-27T07:08:56;7.90;99.90
39189;DHT22;24915;50.858;4.376;2022-11-27T07:11:24;7.80;99.90
39189;DHT22;24915;50.858;4.376;2022-11-27T07:13:52;7.90;99.90
39189;DHT22;24915;50.858;4.376;2022-11-27T07:16:18;7.90;99.90
39189;DHT22;24915;50.858;4.376;2022-11-27T07:18:46;7.90;99.90
39189;DHT22;24915;50.858;4.376;2022-11-27T07:21:12;7.90;99.90
39189;DHT22;24915;50.858;4.376;2022-11-27T07:23:39;7.90;99.90
39189;DHT22;24915;50.858;4.376;2022-11-27T07:26:09;7.90;99.90
39189;DHT22;24915;50.858;4.376;2022-11-27T07:28:35;7.90;99.90
39189;DHT22;24915;50.858;4.376;2022-11-27T07:31:02;7.90;99.90
39189;DHT22;24915;50.858;4.376;2022-11-27T07:33:28;7.90;99.90
39189;DHT22;24915;50.858;4.376;2022-11-27T07:36:05;7.90;99.90
39189;DHT22;24915;50.858;4.376;2022-11-27T07:38:32;7.90;99.90
39189;DHT22;24915;50.858;4.376;2022-11-27T07:41:01;7.90;99.90
39189;DHT22;24915;50.858;4.376;2022-11-27T07:43:28;7.90;99.90
39189;DHT22;24915;50.858;4.376;2022-11-27T07:45:54;7.90;99.90
39189;DHT22;24915;50.858;4.376;2022-11-27T07:48:20;7.90;99.90
39189;DHT22;24915;50.858;4.376;2022-11-27T07:50:46;7.90;99.90
39189;DHT22;24915;50.858;4.376;2022-11-27T07:53:11;7.90;99.90
39189;DHT22;24915;50.858;4.376;2022-11-27T07:55:38;7.90;99.90
39189;DHT22;24915;50.858;4.376;2022-11-27T07:58:04;7.90;99.90
39189;DHT22;24915;50.858;4.376;2022-11-27T08:00:30;7.90;99.90
39189;DHT22;24915;50.858;4.376;2022-11-27T08:03:02;7.90;99.90
39189;DHT22;24915;50.858;4.376;2022-11-27T08:05:28;7.90;99.90
39189;DHT22;24915;50.858;4.376;2022-11-27T08:07:53;7.90;99.90
39189;DHT22;24915;50.858;4.376;2022-11-27T08:10:19;7.90;99.90
39189;DHT22;24915;50.858;4.376;2022-11-27T08:12:45;7.90;99.90
39189;DHT22;24915;50.858;4.376;2022-11-27T08:15:11;7.90;99.90
39189;DHT22;24915;50.858;4.376;2022-11-27T08:17:38;7.90;99.90
39189;DHT22;24915;50.858;4.376;2022-11-27T08:20:05;7.90;99.90
39189;DHT22;24915;50.858;4.376;2022-11-27T08:22:31;7.90;99.90
39189;DHT22;24915;50.858;4.376;2022-11-27T08:24:57;7.90;99.90
39189;DHT22;24915;50.858;4.376;2022-11-27T08:27:22;7.90;99.90
39189;DHT22;24915;50.858;4.376;2022-11-27T08:29:48;7.90;99.90
39189;DHT22;24915;50.858;4.376;2022-11-27T08:32:14;7.90;99.90
39189;DHT22;24915;50.858;4.376;2022-11-27T08:34:40;7.90;99.90
39189;DHT22;24915;50.858;4.376;2022-11-27T08:37:06;7.90;99.90
39189;DHT22;24915;50.858;4.376;2022-11-27T08:39:32;7.90;99.90
39189;DHT22;24915;50.858;4.376;2022-11-27T08:41:58;7.90;99.90
39189;DHT22;24915;50.858;4.376;2022-11-27T08:44:24;7.90;99.90
39189;DHT22;24915;50.858;4.376;2022-11-27T08:46:49;7.90;99.90
39189;DHT22;24915;50.858;4.376;2022-11-27T08:49:15;7.90;99.90
39189;DHT22;24915;50.858;4.376;2022-11-27T08:51:41;7.90;99.90
39189;DHT22;24915;50.858;4.376;2022-11-27T08:54:06;7.90;99.90
39189;DHT22;24915;50.858;4.376;2022-11-27T08:56:32;7.90;99.90
39189;DHT22;24915;50.858;4.376;2022-11-27T08:58:58;7.90;99.90
39189;DHT22;24915;50.858;4.376;2022-11-27T09:01:26;7.90;99.90
39189;DHT22;24915;50.858;4.376;2022-11-27T09:03:52;8.00;99.90
39189;DHT22;24915;50.858;4.376;2022-11-27T09:06:20;7.90;99.90
39189;DHT22;24915;50.858;4.376;2022-11-27T09:08:47;7.90;99.90
39189;DHT22;24915;50.858;4.376;2022-11-27T09:11:14;7.90;99.90
39189;DHT22;24915;50.858;4.376;2022-11-27T09:13:41;7.90;99.90
39189;DHT22;24915;50.858;4.376;2022-11-27T09:16:09;7.90;99.90
39189;DHT22;24915;50.858;4.376;2022-11-27T09:18:35;7.90;99.90
39189;DHT22;24915;50.858;4.376;2022-11-27T09:21:07;7.90;99.90
39189;DHT22;24915;50.858;4.376;2022-11-27T09:23:34;7.90;99.90
39189;DHT22;24915;50.858;4.376;2022-11-27T09:26:01;7.80;99.90
39189;DHT22;24915;50.858;4.376;2022-11-27T09:28:27;7.80;99.90
39189;DHT22;24915;50.858;4.376;2022-11-27T09:30:58;7.80;99.90
39189;DHT22;24915;50.858;4.376;2022-11-27T09:33:26;7.80;99.90
39189;DHT22;24915;50.858;4.376;2022-11-27T09:35:52;7.80;99.90
39189;DHT22;24915;50.858;4.376;2022-11-27T09:38:18;7.80;99.90
39189;DHT22;24915;50.858;4.376;2022-11-27T09:40:52;7.80;99.90
39189;DHT22;24915;50.858;4.376;2022-11-27T09:43:27;7.80;99.90
39189;DHT22;24915;50.858;4.376;2022-11-27T09:46:00;7.80;99.90
39189;DHT22;24915;50.858;4.376;2022-11-27T09:48:34;7.80;99.90
39189;DHT22;24915;50.858;4.376;2022-11-27T09:51:08;7.80;99.90
39189;DHT22;24915;50.858;4.376;2022-11-27T09:54:01;7.80;99.90
39189;DHT22;24915;50.858;4.376;2022-11-27T09:56:32;7.70;99.90
39189;DHT22;24915;50.858;4.376;2022-11-27T09:58:59;7.70;99.90
39189;DHT22;24915;50.858;4.376;2022-11-27T10:01:27;7.80;99.90
39189;DHT22;24915;50.858;4.376;2022-11-27T10:03:54;7.80;99.90
39189;DHT22;24915;50.858;4.376;2022-11-27T10:12:24;7.80;99.90
39189;DHT22;24915;50.858;4.376;2022-11-27T10:17:54;7.80;99.90
39189;DHT22;24915;50.858;4.376;2022-11-27T10:20:38;7.80;99.90
39189;DHT22;24915;50.858;4.376;2022-11-27T10:23:17;7.80;99.90
39189;DHT22;24915;50.858;4.376;2022-11-27T10:25:50;7.80;99.90
39189;DHT22;24915;50.858;4.376;2022-11-27T10:31:39;7.90;99.90
39189;DHT22;24915;50.858;4.376;2022-11-27T10:34:39;7.90;99.90
39189;DHT22;24915;50.858;4.376;2022-11-27T10:37:34;7.90;99.90
39189;DHT22;24915;50.858;4.376;2022-11-27T10:43:06;7.90;99.90
39189;DHT22;24915;50.858;4.376;2022-11-27T10:46:40;7.90;99.90
39189;DHT22;24915;50.858;4.376;2022-11-27T10:48:34;8.00;99.90
39189;DHT22;24915;50.858;4.376;2022-11-27T10:51:00;8.00;99.90
39189;DHT22;24915;50.858;4.376;2022-11-27T10:53:34;8.00;99.90
39189;DHT22;24915;50.858;4.376;2022-11-27T10:59:00;8.00;99.90
39189;DHT22;24915;50.858;4.376;2022-11-27T11:01:39;8.10;99.90
39189;DHT22;24915;50.858;4.376;2022-11-27T11:04:06;8.10;99.90
39189;DHT22;24915;50.858;4.376;2022-11-27T11:06:36;8.20;99.90
39189;DHT22;24915;50.858;4.376;2022-11-27T11:09:11;8.20;99.90
39189;DHT22;24915;50.858;4.376;2022-11-27T11:11:37;8.10;99.90
39189;DHT22;24915;50.858;4.376;2022-11-27T11:14:03;8.20;99.90
39189;DHT22;24915;50.858;4.376;2022-11-27T11:16:41;8.20;99.90
39189;DHT22;24915;50.858;4.376;2022-11-27T11:19:24;8.30;99.90
39189;DHT22;24915;50.858;4.376;2022-11-27T11:21:50;8.30;99.90
39189;DHT22;24915;50.858;4.376;2022-11-27T11:24:49;8.30;99.90
39189;DHT22;24915;50.858;4.376;2022-11-27T11:27:24;8.40;99.90
39189;DHT22;24915;50.858;4.376;2022-11-27T11:29:57;8.50;99.90
39189;DHT22;24915;50.858;4.376;2022-11-27T11:32:28;8.60;99.90
39189;DHT22;24915;50.858;4.376;2022-11-27T11:35:09;8.60;99.90
39189;DHT22;24915;50.858;4.376;2022-11-27T11:37:47;8.70;99.90
39189;DHT22;24915;50.858;4.376;2022-11-27T11:42:58;8.70;99.90
39189;DHT22;24915;50.858;4.376;2022-11-27T11:45:26;8.70;99.90
39189;DHT22;24915;50.858;4.376;2022-11-27T11:47:57;8.70;99.90
39189;DHT22;24915;50.858;4.376;2022-11-27T11:50:40;8.70;99.90
39189;DHT22;24915;50.858;4.376;2022-11-27T11:53:15;8.80;99.90
39189;DHT22;24915;50.858;4.376;2022-11-27T12:04:01;8.80;99.90
39189;DHT22;24915;50.858;4.376;2022-11-27T12:09:26;8.80;99.90
39189;DHT22;24915;50.858;4.376;2022-11-27T12:12:05;8.80;99.90
39189;DHT22;24915;50.858;4.376;2022-11-27T12:14:47;8.80;99.90
39189;DHT22;24915;50.858;4.376;2022-11-27T12:26:03;8.80;99.90
39189;DHT22;24915;50.858;4.376;2022-11-27T12:28:51;8.80;99.90
39189;DHT22;24915;50.858;4.376;2022-11-27T12:31:48;8.80;99.90
39189;DHT22;24915;50.858;4.376;2022-11-27T12:37:45;8.80;99.90
39189;DHT22;24915;50.858;4.376;2022-11-27T12:45:34;8.80;99.90
39189;DHT22;24915;50.858;4.376;2022-11-27T12:48:32;8.80;99.90
39189;DHT22;24915;50.858;4.376;2022-11-27T12:51:11;8.80;99.90
39189;DHT22;24915;50.858;4.376;2022-11-27T12:59:17;8.70;99.90
39189;DHT22;24915;50.858;4.376;2022-11-27T13:01:52;8.80;99.90
39189;DHT22;24915;50.858;4.376;2022-11-27T13:04:50;8.70;99.90
39189;DHT22;24915;50.858;4.376;2022-11-27T13:07:45;8.70;99.90
39189;DHT22;24915;50.858;4.376;2022-11-27T13:10:34;8.70;99.90
39189;DHT22;24915;50.858;4.376;2022-11-27T13:13:13;8.70;99.90
39189;DHT22;24915;50.858;4.376;2022-11-27T13:15:47;8.70;99.90
39189;DHT22;24915;50.858;4.376;2022-11-27T13:20:51;8.70;99.90
39189;DHT22;24915;50.858;4.376;2022-11-27T13:23:19;8.70;99.90
39189;DHT22;24915;50.858;4.376;2022-11-27T13:25:49;8.70;99.90
39189;DHT22;24915;50.858;4.376;2022-11-27T13:30:53;8.70;99.90
39189;DHT22;24915;50.858;4.376;2022-11-27T13:33:34;8.70;99.90
39189;DHT22;24915;50.858;4.376;2022-11-27T13:36:01;8.70;99.90
39189;DHT22;24915;50.858;4.376;2022-11-27T13:38:28;8.70;99.90
39189;DHT22;24915;50.858;4.376;2022-11-27T13:40:55;8.70;99.90
39189;DHT22;24915;50.858;4.376;2022-11-27T13:43:30;8.70;99.90
39189;DHT22;24915;50.858;4.376;2022-11-27T13:46:25;8.70;99.90
39189;DHT22;24915;50.858;4.376;2022-11-27T13:48:57;8.70;99.90
39189;DHT22;24915;50.858;4.376;2022-11-27T13:51:35;8.70;99.90
39189;DHT22;24915;50.858;4.376;2022-11-27T13:56:37;8.70;99.90
39189;DHT22;24915;50.858;4.376;2022-11-27T13:59:18;8.70;99.90
39189;DHT22;24915;50.858;4.376;2022-11-27T14:02:04;8.80;99.90
39189;DHT22;24915;50.858;4.376;2022-11-27T14:04:31;8.80;99.90
39189;DHT22;24915;50.858;4.376;2022-11-27T14:07:05;8.80;99.90
39189;DHT22;24915;50.858;4.376;2022-11-27T14:09:43;8.80;99.90
39189;DHT22;24915;50.858;4.376;2022-11-27T14:15:06;8.90;99.90
39189;DHT22;24915;50.858;4.376;2022-11-27T14:17:53;8.90;99.90
39189;DHT22;24915;50.858;4.376;2022-11-27T14:20:31;8.90;99.90
39189;DHT22;24915;50.858;4.376;2022-11-27T14:22:59;9.00;99.90
39189;DHT22;24915;50.858;4.376;2022-11-27T14:25:33;9.00;99.90
39189;DHT22;24915;50.858;4.376;2022-11-27T14:28:11;9.00;99.90
39189;DHT22;24915;50.858;4.376;2022-11-27T14:30:39;9.00;99.90
39189;DHT22;24915;50.858;4.376;2022-11-27T14:33:23;9.00;99.90
39189;DHT22;24915;50.858;4.376;2022-11-27T14:35:55;9.00;99.90
39189;DHT22;24915;50.858;4.376;2022-11-27T14:38:22;9.00;99.90
39189;DHT22;24915;50.858;4.376;2022-11-27T14:40:49;9.00;99.90
39189;DHT22;24915;50.858;4.376;2022-11-27T14:43:22;9.00;99.90
39189;DHT22;24915;50.858;4.376;2022-11-27T14:45:51;9.00;99.90
39189;DHT22;24915;50.858;4.376;2022-11-27T14:48:23;9.00;99.90
39189;DHT22;24915;50.858;4.376;2022-11-27T14:50:50;9.00;99.90
39189;DHT22;24915;50.858;4.376;2022-11-27T14:53:23;9.00;99.90
39189;DHT22;24915;50.858;4.376;2022-11-27T14:55:52;9.00;99.90
39189;DHT22;24915;50.858;4.376;2022-11-27T14:58:22;9.00;99.90
39189;DHT22;24915;50.858;4.376;2022-11-27T15:00:56;9.00;99.90
39189;DHT22;24915;50.858;4.376;2022-11-27T15:03:24;8.90;99.90
39189;DHT22;24915;50.858;4.376;2022-11-27T15:05:59;9.00;99.90
39189;DHT22;24915;50.858;4.376;2022-11-27T15:08:26;9.00;99.90
39189;DHT22;24915;50.858;4.376;2022-11-27T15:10:55;9.00;99.90
39189;DHT22;24915;50.858;4.376;2022-11-27T15:13:35;9.00;99.90
39189;DHT22;24915;50.858;4.376;2022-11-27T15:16:06;9.00;99.90
39189;DHT22;24915;50.858;4.376;2022-11-27T15:18:38;9.00;99.90
39189;DHT22;24915;50.858;4.376;2022-11-27T15:21:15;9.00;99.90
39189;DHT22;24915;50.858;4.376;2022-11-27T15:23:46;9.00;99.90
39189;DHT22;24915;50.858;4.376;2022-11-27T15:26:36;8.90;99.90
39189;DHT22;24915;50.858;4.376;2022-11-27T15:31:57;8.90;99.90
39189;DHT22;24915;50.858;4.376;2022-11-27T15:34:23;8.80;99.90
39189;DHT22;24915;50.858;4.376;2022-11-27T15:36:55;8.80;99.90
39189;DHT22;24915;50.858;4.376;2022-11-27T15:39:26;8.80;99.90
39189;DHT22;24915;50.858;4.376;2022-11-27T15:41:57;8.80;99.90
39189;DHT22;24915;50.858;4.376;2022-11-27T15:44:24;8.80;99.90
39189;DHT22;24915;50.858;4.376;2022-11-27T15:46:51;8.80;99.90
39189;DHT22;24915;50.858;4.376;2022-11-27T15:49:21;8.80;99.90
39189;DHT22;24915;50.858;4.376;2022-11-27T15:51:48;8.80;99.90
39189;DHT22;24915;50.858;4.376;2022-11-27T15:54:14;8.80;99.90
39189;DHT22;24915;50.858;4.376;2022-11-27T15:56:40;8.80;99.90
39189;DHT22;24915;50.858;4.376;2022-11-27T15:59:11;8.80;99.90
39189;DHT22;24915;50.858;4.376;2022-11-27T16:01:37;8.80;99.90
39189;DHT22;24915;50.858;4.376;2022-11-27T16:04:02;8.80;99.90
39189;DHT22;24915;50.858;4.376;2022-11-27T16:06:28;8.80;99.90
39189;DHT22;24915;50.858;4.376;2022-11-27T16:08:58;8.80;99.90
39189;DHT22;24915;50.858;4.376;2022-11-27T16:11:25;8.80;99.90
39189;DHT22;24915;50.858;4.376;2022-11-27T16:13:51;8.70;99.90
39189;DHT22;24915;50.858;4.376;2022-11-27T16:16:17;8.80;99.90
39189;DHT22;24915;50.858;4.376;2022-11-27T16:18:43;8.70;99.90
39189;DHT22;24915;50.858;4.376;2022-11-27T16:21:11;8.70;99.90
39189;DHT22;24915;50.858;4.376;2022-11-27T16:23:38;8.70;99.90
39189;DHT22;24915;50.858;4.376;2022-11-27T16:26:06;8.70;99.90
39189;DHT22;24915;50.858;4.376;2022-11-27T16:28:32;8.70;99.90
39189;DHT22;24915;50.858;4.376;2022-11-27T16:31:00;8.70;99.90
39189;DHT22;24915;50.858;4.376;2022-11-27T16:33:30;8.70;99.90
39189;DHT22;24915;50.858;4.376;2022-11-27T16:36:06;8.70;99.90
39189;DHT22;24915;50.858;4.376;2022-11-27T16:38:32;8.70;99.90
39189;DHT22;24915;50.858;4.376;2022-11-27T16:41:04;8.60;99.90
39189;DHT22;24915;50.858;4.376;2022-11-27T16:43:36;8.60;99.90
39189;DHT22;24915;50.858;4.376;2022-11-27T16:46:19;8.70;99.90
39189;DHT22;24915;50.858;4.376;2022-11-27T16:48:46;8.60;99.90
39189;DHT22;24915;50.858;4.376;2022-11-27T16:51:16;8.60;99.90
39189;DHT22;24915;50.858;4.376;2022-11-27T16:53:44;8.60;99.90
39189;DHT22;24915;50.858;4.376;2022-11-27T16:56:10;8.60;99.90
39189;DHT22;24915;50.858;4.376;2022-11-27T16:58:38;8.60;99.90
39189;DHT22;24915;50.858;4.376;2022-11-27T17:01:05;8.70;99.90
39189;DHT22;24915;50.858;4.376;2022-11-27T17:03:31;8.60;99.90
39189;DHT22;24915;50.858;4.376;2022-11-27T17:05:57;8.70;99.90
39189;DHT22;24915;50.858;4.376;2022-11-27T17:08:23;8.60;99.90
39189;DHT22;24915;50.858;4.376;2022-11-27T17:10:49;8.60;99.90
39189;DHT22;24915;50.858;4.376;2022-11-27T17:13:15;8.60;99.90
39189;DHT22;24915;50.858;4.376;2022-11-27T17:15:42;8.60;99.90
39189;DHT22;24915;50.858;4.376;2022-11-27T17:18:08;8.60;99.90
39189;DHT22;24915;50.858;4.376;2022-11-27T17:20:34;8.60;99.90
39189;DHT22;24915;50.858;4.376;2022-11-27T17:22:59;8.50;99.90
39189;DHT22;24915;50.858;4.376;2022-11-27T17:25:25;8.50;99.90
39189;DHT22;24915;50.858;4.376;2022-11-27T17:27:51;8.50;99.90
39189;DHT22;24915;50.858;4.376;2022-11-27T17:30:18;8.50;99.90
39189;DHT22;24915;50.858;4.376;2022-11-27T17:32:44;8.50;99.90
39189;DHT22;24915;50.858;4.376;2022-11-27T17:35:09;8.50;99.90
39189;DHT22;24915;50.858;4.376;2022-11-27T17:37:35;8.50;99.90
39189;DHT22;24915;50.858;4.376;2022-11-27T17:40:01;8.50;99.90